createdAt,value
2018-02-25T00:02:27.351Z,52.00
2018-02-25T00:05:01.298Z,51.40
2018-02-25T00:07:35.276Z,51.40
2018-02-25T00:10:09.856Z,51.80
2018-02-25T00:12:44.158Z,51.70
2018-02-25T00:15:20.222Z,51.70
2018-02-25T00:17:54.516Z,51.70
2018-02-25T00:20:29.351Z,51.70
2018-02-25T00:23:04.160Z,52.30
2018-02-25T00:25:37.983Z,51.80
2018-02-25T00:28:12.036Z,52.60
2018-02-25T00:30:45.580Z,52.50
2018-02-25T00:33:20.221Z,52.50
2018-02-25T00:35:54.223Z,52.50
2018-02-25T00:38:28.676Z,52.60
2018-02-25T00:41:02.739Z,52.60
2018-02-25T00:43:37.294Z,52.80
2018-02-25T00:46:11.134Z,52.70
2018-02-25T00:48:45.704Z,52.80
2018-02-25T00:51:19.480Z,52.70
2018-02-25T00:53:53.143Z,52.80
2018-02-25T00:56:26.957Z,53.10
2018-02-25T00:59:00.814Z,52.80
2018-02-25T01:01:34.657Z,52.70
2018-02-25T01:04:08.289Z,53.00
2018-02-25T01:06:42.764Z,53.10
2018-02-25T01:09:16.581Z,53.00
2018-02-25T01:11:50.411Z,52.90
2018-02-25T01:14:24.249Z,53.00
2018-02-25T01:16:58.612Z,53.30
2018-02-25T01:19:33.110Z,53.30
2018-02-25T01:22:08.169Z,53.30
2018-02-25T01:24:42.392Z,53.30
2018-02-25T01:27:17.620Z,53.40
2018-02-25T01:29:53.472Z,53.40
2018-02-25T01:32:27.225Z,53.40
2018-02-25T01:35:01.288Z,53.40
2018-02-25T01:37:36.443Z,53.70
2018-02-25T01:40:10.808Z,53.60
2018-02-25T01:42:44.445Z,53.50
2018-02-25T01:45:19.292Z,53.40
2018-02-25T01:47:53.708Z,53.30
2018-02-25T01:50:27.597Z,53.30
2018-02-25T01:53:01.281Z,53.40
2018-02-25T01:55:35.010Z,53.40
2018-02-25T01:58:08.830Z,53.40
2018-02-25T02:00:42.579Z,53.50
2018-02-25T02:03:17.158Z,53.40
2018-02-25T02:05:50.845Z,53.20
2018-02-25T02:08:24.456Z,53.50
2018-02-25T02:10:59.090Z,53.50
2018-02-25T02:13:32.791Z,53.50
2018-02-25T02:16:07.308Z,53.60
2018-02-25T02:18:41.207Z,53.60
2018-02-25T02:21:14.942Z,53.50
2018-02-25T02:23:50.125Z,53.80
2018-02-25T02:26:23.875Z,53.70
2018-02-25T02:28:57.452Z,54.10
2018-02-25T02:31:31.491Z,53.70
2018-02-25T02:34:05.662Z,53.00
2018-02-25T02:36:39.696Z,54.00
2018-02-25T02:39:14.218Z,54.10
2018-02-25T02:41:49.265Z,54.10
2018-02-25T02:44:23.118Z,54.10
2018-02-25T02:46:57.574Z,54.30
2018-02-25T02:49:31.934Z,54.80
2018-02-25T02:52:06.165Z,54.00
2018-02-25T02:54:40.455Z,54.00
2018-02-25T02:57:15.348Z,54.00
2018-02-25T02:59:48.888Z,54.30
2018-02-25T03:02:22.756Z,54.10
2018-02-25T03:04:56.674Z,54.20
2018-02-25T03:07:30.389Z,54.00
2018-02-25T03:10:04.095Z,54.20
2018-02-25T03:12:37.876Z,54.20
2018-02-25T03:15:11.522Z,54.20
2018-02-25T03:17:45.998Z,54.30
2018-02-25T03:20:20.212Z,54.10
2018-02-25T03:22:54.007Z,54.30
2018-02-25T03:25:27.780Z,54.00
2018-02-25T03:28:01.511Z,54.40
2018-02-25T03:30:35.265Z,54.00
2018-02-25T03:33:08.958Z,54.00
2018-02-25T03:35:43.572Z,54.40
2018-02-25T03:38:17.167Z,54.40
2018-02-25T03:40:50.876Z,54.50
2018-02-25T03:43:25.092Z,54.00
2018-02-25T03:46:00.224Z,54.70
2018-02-25T03:48:34.786Z,54.70
2018-02-25T03:51:09.985Z,54.60
2018-02-25T03:53:44.111Z,54.10
2018-02-25T03:56:17.688Z,54.20
2018-02-25T03:58:52.129Z,54.20
2018-02-25T04:01:26.342Z,54.60
2018-02-25T04:04:00.651Z,55.20
2018-02-25T04:06:35.203Z,54.80
2018-02-25T04:09:09.803Z,54.50
2018-02-25T04:11:43.705Z,55.10
2018-02-25T04:14:17.624Z,54.70
2018-02-25T04:16:51.385Z,55.10
2018-02-25T04:19:25.124Z,55.10
2018-02-25T04:21:59.879Z,55.10
2018-02-25T04:24:34.475Z,55.20
2018-02-25T04:27:08.472Z,54.70
2018-02-25T04:29:43.076Z,54.80
2018-02-25T04:32:17.068Z,54.90
2018-02-25T04:34:50.848Z,55.10
2018-02-25T04:37:24.648Z,55.30
2018-02-25T04:39:58.397Z,55.30
2018-02-25T04:42:32.113Z,55.30
2018-02-25T04:45:06.564Z,55.90
2018-02-25T04:47:40.987Z,55.80
2018-02-25T04:50:14.758Z,55.60
2018-02-25T04:52:49.820Z,56.20
2018-02-25T04:55:23.431Z,56.00
2018-02-25T04:57:57.439Z,56.10
2018-02-25T05:00:31.754Z,55.90
2018-02-25T05:03:05.968Z,56.00
2018-02-25T05:05:40.192Z,56.50
2018-02-25T05:08:15.433Z,56.70
2018-02-25T05:10:49.722Z,56.70
2018-02-25T05:13:24.476Z,56.90
2018-02-25T05:15:58.171Z,56.60
2018-02-25T05:18:31.795Z,56.60
2018-02-25T05:21:06.149Z,57.10
2018-02-25T05:23:41.251Z,57.20
2018-02-25T05:26:15.339Z,57.10
2018-02-25T05:28:48.919Z,57.20
2018-02-25T05:31:22.715Z,57.20
2018-02-25T05:33:56.411Z,57.20
2018-02-25T05:36:30.139Z,57.30
2018-02-25T05:39:03.773Z,57.00
2018-02-25T05:41:37.525Z,57.70
2018-02-25T05:44:12.086Z,57.30
2018-02-25T05:46:46.080Z,57.30
2018-02-25T05:49:19.820Z,57.50
2018-02-25T05:51:54.980Z,57.30
2018-02-25T05:54:29.309Z,57.00
2018-02-25T05:57:03.258Z,57.10
2018-02-25T05:59:37.700Z,57.10
2018-02-25T06:02:13.249Z,57.50
2018-02-25T06:04:47.411Z,57.00
2018-02-25T06:07:21.767Z,57.50
2018-02-25T06:09:56.181Z,57.50
2018-02-25T06:12:29.711Z,57.60
2018-02-25T06:15:04.008Z,56.90
2018-02-25T06:17:38.075Z,57.10
2018-02-25T06:20:12.508Z,57.50
2018-02-25T06:22:47.730Z,57.50
2018-02-25T06:25:22.211Z,56.80
2018-02-25T06:27:56.704Z,56.80
2018-02-25T06:30:31.122Z,56.60
2018-02-25T06:33:05.264Z,56.70
2018-02-25T06:35:38.875Z,57.20
2018-02-25T06:38:12.555Z,56.70
2018-02-25T06:40:46.190Z,57.20
2018-02-25T06:43:19.916Z,56.50
2018-02-25T06:45:53.546Z,56.40
2018-02-25T06:48:27.239Z,56.10
2018-02-25T06:51:00.861Z,55.90
2018-02-25T06:53:34.675Z,55.80
2018-02-25T06:56:09.358Z,56.70
2018-02-25T06:58:43.151Z,55.60
2018-02-25T07:01:16.853Z,55.70
2018-02-25T07:03:50.565Z,55.90
2018-02-25T07:06:24.285Z,56.30
2018-02-25T07:08:58.831Z,56.10
2018-02-25T07:11:32.501Z,55.50
2018-02-25T07:14:07.660Z,55.90
2018-02-25T07:16:42.082Z,54.70
2018-02-25T07:19:16.445Z,51.50
2018-02-25T07:21:50.867Z,51.70
2018-02-25T07:24:24.511Z,47.00
2018-02-25T07:26:58.316Z,45.40
2018-02-25T07:29:32.862Z,44.00
2018-02-25T07:32:07.993Z,44.40
2018-02-25T07:34:42.528Z,44.40
2018-02-25T07:37:16.954Z,44.50
2018-02-25T07:39:51.475Z,45.00
2018-02-25T07:42:25.865Z,44.20
2018-02-25T07:45:00.003Z,40.70
2018-02-25T07:47:34.099Z,40.40
2018-02-25T07:50:08.613Z,39.20
2018-02-25T07:52:42.502Z,39.10
2018-02-25T07:55:17.060Z,37.10
2018-02-25T07:57:51.880Z,36.70
2018-02-25T08:00:26.790Z,36.50
2018-02-25T08:03:01.456Z,35.60
2018-02-25T08:05:35.548Z,35.70
2018-02-25T08:08:09.219Z,34.90
2018-02-25T08:10:43.034Z,35.50
2018-02-25T08:13:17.567Z,35.90
2018-02-25T08:15:51.697Z,35.70
2018-02-25T08:18:26.187Z,34.20
2018-02-25T08:21:01.131Z,31.60
2018-02-25T08:23:34.746Z,31.50
2018-02-25T08:26:09.604Z,29.00
2018-02-25T08:28:44.703Z,27.90
2018-02-25T08:31:19.307Z,27.90
2018-02-25T08:33:53.580Z,27.00
2018-02-25T08:36:28.798Z,26.80
2018-02-25T08:39:03.771Z,26.20
2018-02-25T08:41:37.345Z,25.90
2018-02-25T08:44:11.751Z,24.80
2018-02-25T08:46:46.057Z,22.80
2018-02-25T08:49:20.420Z,20.20
2018-02-25T08:51:54.579Z,19.80
2018-02-25T08:54:28.995Z,17.70
2018-02-25T08:57:02.978Z,15.40
2018-02-25T08:59:36.793Z,14.10
2018-02-25T09:02:10.750Z,14.00
2018-02-25T09:04:44.451Z,12.80
2018-02-25T09:07:18.147Z,13.10
2018-02-25T09:09:51.907Z,12.50
2018-02-25T09:12:26.376Z,11.80
2018-02-25T09:15:00.140Z,11.80
2018-02-25T09:17:33.931Z,11.40
2018-02-25T09:20:07.712Z,11.80
2018-02-25T09:22:41.379Z,10.80
2018-02-25T09:25:15.072Z,10.60
2018-02-25T09:27:48.856Z,10.50
2018-02-25T09:30:22.553Z,10.60
2018-02-25T09:32:57.309Z,11.20
2018-02-25T09:35:31.959Z,10.70
2018-02-25T09:38:06.695Z,10.30
2018-02-25T09:40:40.839Z,10.30
2018-02-25T09:43:14.949Z,10.00
2018-02-25T09:45:49.512Z,9.00
2018-02-25T09:48:24.270Z,8.60
2018-02-25T09:50:58.887Z,8.90
2018-02-25T09:53:33.127Z,8.80
2018-02-25T09:56:06.916Z,8.50
2018-02-25T09:58:41.803Z,8.40
2018-02-25T10:01:16.290Z,7.90
2018-02-25T10:03:51.264Z,7.50
2018-02-25T10:06:25.533Z,7.50
2018-02-25T10:09:00.512Z,8.00
2018-02-25T10:11:34.407Z,8.00
2018-02-25T10:14:08.225Z,8.20
2018-02-25T10:16:42.792Z,8.30
2018-02-25T10:19:16.816Z,9.00
2018-02-25T10:21:50.624Z,9.40
2018-02-25T10:24:24.249Z,9.70
2018-02-25T10:26:57.932Z,9.70
2018-02-25T10:29:31.565Z,9.50
2018-02-25T10:32:05.285Z,9.60
2018-02-25T10:34:38.915Z,9.50
2018-02-25T10:37:12.836Z,9.20
2018-02-25T10:39:46.503Z,9.50
2018-02-25T10:42:20.126Z,9.90
2018-02-25T10:44:53.880Z,10.00
2018-02-25T10:47:27.548Z,11.90
2018-02-25T10:50:01.368Z,13.10
2018-02-25T10:52:35.150Z,14.00
2018-02-25T10:55:09.623Z,14.10
2018-02-25T10:57:43.616Z,14.40
2018-02-25T11:00:23.346Z,13.80
2018-02-25T11:02:58.140Z,14.10
2018-02-25T11:05:32.423Z,13.80
2018-02-25T11:08:06.538Z,13.70
2018-02-25T11:10:41.572Z,13.80
2018-02-25T11:13:16.625Z,15.00
2018-02-25T11:15:51.397Z,16.20
2018-02-25T11:18:25.547Z,16.80
2018-02-25T11:20:59.128Z,16.80
2018-02-25T11:23:33.042Z,17.20
2018-02-25T11:26:07.431Z,17.30
2018-02-25T11:28:41.374Z,17.30
2018-02-25T11:31:15.357Z,16.50
2018-02-25T11:33:49.786Z,15.60
2018-02-25T11:36:23.677Z,15.50
2018-02-25T11:38:57.376Z,15.40
2018-02-25T11:41:30.930Z,14.30
2018-02-25T11:44:04.634Z,14.60
2018-02-25T11:46:38.354Z,16.20
2018-02-25T11:49:12.126Z,14.60
2018-02-25T11:51:45.809Z,14.60
2018-02-25T11:54:19.433Z,14.80
2018-02-25T11:56:54.024Z,14.30
2018-02-25T11:59:28.032Z,14.30
2018-02-25T12:02:01.918Z,14.60
2018-02-25T12:04:35.866Z,14.90
2018-02-25T12:07:09.482Z,15.50
2018-02-25T12:09:43.180Z,16.70
2018-02-25T12:12:17.574Z,16.70
2018-02-25T12:14:51.622Z,16.80
2018-02-25T12:17:25.383Z,16.90
2018-02-25T12:19:59.338Z,17.40
2018-02-25T12:22:33.296Z,17.80
2018-02-25T12:25:07.192Z,17.70
2018-02-25T12:27:42.786Z,18.60
2018-02-25T12:30:16.772Z,18.30
2018-02-25T12:32:50.414Z,18.50
2018-02-25T12:35:24.234Z,17.60
2018-02-25T12:37:57.769Z,17.10
2018-02-25T12:40:31.978Z,17.40
2018-02-25T12:43:06.008Z,17.00
2018-02-25T12:45:39.649Z,17.70
2018-02-25T12:48:13.464Z,18.70
2018-02-25T12:50:47.907Z,19.60
2018-02-25T12:53:22.716Z,19.70
2018-02-25T12:55:56.604Z,19.70
2018-02-25T12:58:31.079Z,20.90
2018-02-25T13:01:05.875Z,21.20
2018-02-25T13:03:39.637Z,20.80
2018-02-25T13:06:13.452Z,21.20
2018-02-25T13:08:48.168Z,21.00
2018-02-25T13:11:23.570Z,22.00
2018-02-25T13:13:57.310Z,21.90
2018-02-25T13:16:31.311Z,21.90
2018-02-25T13:19:06.003Z,21.70
2018-02-25T13:21:39.755Z,21.30
2018-02-25T13:24:13.811Z,21.40
2018-02-25T13:26:47.647Z,21.80
2018-02-25T13:29:21.760Z,22.10
2018-02-25T13:31:55.334Z,22.90
2018-02-25T13:34:29.223Z,23.40
2018-02-25T13:37:02.907Z,23.20
2018-02-25T13:39:36.601Z,22.70
2018-02-25T13:42:10.396Z,22.40
2018-02-25T13:44:44.222Z,22.70
2018-02-25T13:47:17.946Z,21.90
2018-02-25T13:49:51.783Z,22.50
2018-02-25T13:52:25.689Z,23.10
2018-02-25T13:55:00.868Z,23.80
2018-02-25T13:57:34.941Z,23.40
2018-02-25T14:00:09.395Z,24.10
2018-02-25T14:02:43.063Z,23.20
2018-02-25T14:05:16.779Z,23.40
2018-02-25T14:07:51.100Z,24.60
2018-02-25T14:10:25.053Z,25.00
2018-02-25T14:12:58.835Z,25.90
2018-02-25T14:15:32.441Z,26.00
2018-02-25T14:18:07.021Z,26.20
2018-02-25T14:20:40.640Z,26.10
2018-02-25T14:23:15.188Z,26.20
2018-02-25T14:25:48.883Z,26.30
2018-02-25T14:28:23.320Z,26.20
2018-02-25T14:30:57.380Z,26.20
2018-02-25T14:33:31.807Z,27.00
2018-02-25T14:36:05.893Z,26.70
2018-02-25T14:38:40.250Z,27.50
2018-02-25T14:41:15.013Z,27.90
2018-02-25T14:43:49.150Z,27.80
2018-02-25T14:46:23.502Z,28.20
2018-02-25T14:48:57.923Z,28.80
2018-02-25T14:51:31.971Z,28.90
2018-02-25T14:54:06.696Z,30.50
2018-02-25T14:56:40.772Z,29.90
2018-02-25T14:59:14.495Z,30.30
2018-02-25T15:01:48.338Z,30.40
2018-02-25T15:04:22.136Z,30.60
2018-02-25T15:06:55.730Z,31.50
2018-02-25T15:09:29.596Z,31.70
2018-02-25T15:12:03.466Z,31.90
2018-02-25T15:14:38.288Z,32.80
2018-02-25T15:17:12.188Z,32.30
2018-02-25T15:19:45.992Z,32.20
2018-02-25T15:22:19.801Z,32.40
2018-02-25T15:24:53.463Z,32.40
2018-02-25T15:27:28.113Z,33.90
2018-02-25T15:30:02.152Z,33.70
2018-02-25T15:32:35.976Z,33.90
2018-02-25T15:35:10.178Z,34.70
2018-02-25T15:37:44.369Z,35.10
2018-02-25T15:40:18.098Z,35.00
2018-02-25T15:42:51.692Z,35.00
2018-02-25T15:45:26.028Z,35.10
2018-02-25T15:48:00.523Z,36.60
2018-02-25T15:50:34.894Z,36.60
2018-02-25T15:53:08.795Z,37.10
2018-02-25T15:55:42.634Z,37.40
2018-02-25T15:58:17.175Z,39.10
2018-02-25T16:00:51.003Z,39.30
2018-02-25T16:03:25.072Z,40.00
2018-02-25T16:05:59.202Z,40.70
2018-02-25T16:08:33.943Z,41.70
2018-02-25T16:11:08.647Z,43.30
2018-02-25T16:13:42.564Z,43.20
2018-02-25T16:16:17.256Z,42.60
2018-02-25T16:18:51.952Z,42.10
2018-02-25T16:21:25.996Z,41.50
2018-02-25T16:23:59.642Z,42.60
2018-02-25T16:26:33.596Z,42.60
2018-02-25T16:29:07.340Z,43.50
2018-02-25T16:31:41.097Z,43.80
2018-02-25T16:34:14.876Z,45.00
2018-02-25T16:36:48.702Z,45.10
2018-02-25T16:39:22.280Z,46.70
2018-02-25T16:41:56.071Z,47.30
2018-02-25T16:44:29.925Z,47.70
2018-02-25T16:47:04.461Z,47.70
2018-02-25T16:49:38.119Z,47.00
2018-02-25T16:52:12.571Z,46.90
2018-02-25T16:54:46.732Z,46.40
2018-02-25T16:57:20.726Z,47.00
2018-02-25T16:59:54.917Z,46.60
2018-02-25T17:02:28.757Z,47.70
2018-02-25T17:05:02.543Z,47.40
2018-02-25T17:07:37.132Z,48.40
2018-02-25T17:10:11.297Z,48.00
2018-02-25T17:12:45.220Z,48.50
2018-02-25T17:15:18.964Z,49.00
2018-02-25T17:17:52.866Z,49.60
2018-02-25T17:20:27.524Z,50.20
2018-02-25T17:23:01.126Z,50.20
2018-02-25T17:25:34.849Z,50.00
2018-02-25T17:28:09.294Z,50.80
2018-02-25T17:30:43.888Z,50.80
2018-02-25T17:33:17.873Z,50.70
2018-02-25T17:35:51.680Z,51.20
2018-02-25T17:38:25.416Z,51.00
2018-02-25T17:40:59.094Z,50.30
2018-02-25T17:43:33.848Z,50.90
2018-02-25T17:46:08.585Z,50.40
2018-02-25T17:48:42.560Z,50.40
2018-02-25T17:51:17.164Z,50.90
2018-02-25T17:53:50.862Z,51.10
2018-02-25T17:56:24.569Z,51.30
2018-02-25T17:58:59.027Z,51.40
2018-02-25T18:01:32.938Z,51.30
2018-02-25T18:04:07.485Z,52.00
2018-02-25T18:06:42.902Z,51.80
2018-02-25T18:09:16.516Z,52.00
2018-02-25T18:11:50.711Z,52.20
2018-02-25T18:14:24.811Z,51.90
2018-02-25T18:16:58.688Z,52.30
2018-02-25T18:19:32.448Z,52.20
2018-02-25T18:22:06.660Z,51.90
2018-02-25T18:24:40.915Z,51.70
2018-02-25T18:27:15.582Z,51.60
2018-02-25T18:29:49.256Z,51.60
2018-02-25T18:32:23.750Z,52.00
2018-02-25T18:34:57.933Z,51.90
2018-02-25T18:37:33.195Z,52.50
2018-02-25T18:40:07.101Z,52.20
2018-02-25T18:42:41.403Z,52.10
2018-02-25T18:45:16.762Z,52.80
2018-02-25T18:47:50.678Z,52.20
2018-02-25T18:50:25.306Z,52.80
2018-02-25T18:52:58.954Z,52.30
2018-02-25T18:55:33.873Z,52.40
2018-02-25T18:58:07.501Z,52.90
2018-02-25T19:00:41.246Z,52.20
2018-02-25T19:03:14.970Z,52.70
2018-02-25T19:05:49.027Z,53.00
2018-02-25T19:08:22.964Z,52.80
2018-02-25T19:10:56.620Z,52.20
2018-02-25T19:13:30.786Z,52.60
2018-02-25T19:16:06.003Z,52.80
2018-02-25T19:18:39.878Z,52.40
2018-02-25T19:21:14.154Z,52.30
2018-02-25T19:23:48.519Z,52.80
2018-02-25T19:26:22.788Z,53.10
2018-02-25T19:28:57.240Z,52.60
2018-02-25T19:31:32.432Z,53.30
2018-02-25T19:34:06.727Z,53.30
2018-02-25T19:36:46.294Z,53.30
2018-02-25T19:39:26.140Z,54.20
2018-02-25T19:42:00.595Z,53.70
2018-02-25T19:44:34.213Z,54.40
2018-02-25T19:47:07.896Z,54.80
2018-02-25T19:49:42.463Z,55.90
2018-02-25T19:52:16.393Z,55.90
2018-02-25T19:54:50.201Z,56.00
2018-02-25T19:57:23.983Z,56.80
2018-02-25T19:59:57.668Z,57.10
2018-02-25T20:02:31.367Z,57.60
2018-02-25T20:05:05.928Z,58.50
2018-02-25T20:07:39.875Z,58.00
2018-02-25T20:10:14.219Z,58.00
2018-02-25T20:12:48.946Z,58.10
2018-02-25T20:15:23.810Z,58.80
2018-02-25T20:17:57.735Z,58.40
2018-02-25T20:20:31.588Z,58.60
2018-02-25T20:23:05.223Z,59.00
2018-02-25T20:25:38.898Z,59.20
2018-02-25T20:28:13.441Z,60.10
2018-02-25T20:30:47.223Z,60.00
2018-02-25T20:33:20.870Z,60.70
2018-02-25T20:35:54.498Z,60.90
2018-02-25T20:38:28.180Z,61.10
2018-02-25T20:41:02.016Z,61.00
2018-02-25T20:43:36.672Z,61.60
2018-02-25T20:46:10.451Z,61.50
2018-02-25T20:48:44.600Z,61.70
2018-02-25T20:51:18.812Z,61.70
2018-02-25T20:53:53.004Z,61.80
2018-02-25T20:56:26.739Z,61.50
2018-02-25T20:59:00.375Z,61.50
2018-02-25T21:01:34.032Z,61.90
2018-02-25T21:04:08.415Z,61.30
2018-02-25T21:06:42.403Z,61.80
2018-02-25T21:09:16.304Z,61.80
2018-02-25T21:11:50.107Z,61.80
2018-02-25T21:14:24.712Z,62.00
2018-02-25T21:16:58.750Z,61.80
2018-02-25T21:19:32.717Z,61.60
2018-02-25T21:22:06.494Z,61.60
2018-02-25T21:24:40.275Z,62.00
2018-02-25T21:27:14.044Z,62.80
2018-02-25T21:29:47.592Z,63.50
2018-02-25T21:32:21.467Z,63.70
2018-02-25T21:34:55.351Z,63.10
2018-02-25T21:37:29.780Z,64.10
2018-02-25T21:40:03.683Z,64.00
2018-02-25T21:42:37.303Z,63.50
2018-02-25T21:45:11.135Z,63.70
2018-02-25T21:47:45.626Z,64.00
2018-02-25T21:50:19.744Z,64.00
2018-02-25T21:52:54.272Z,63.10
2018-02-25T21:55:28.815Z,62.80
2018-02-25T21:58:09.063Z,62.70
2018-02-25T22:00:48.867Z,62.30
2018-02-25T22:03:28.738Z,62.40
2018-02-25T22:06:02.861Z,62.30
2018-02-25T22:08:36.787Z,62.80
2018-02-25T22:11:10.401Z,62.10
2018-02-25T22:13:44.359Z,62.30
2018-02-25T22:16:19.599Z,62.20
2018-02-25T22:18:53.913Z,62.70
2018-02-25T22:21:28.321Z,62.90
2018-02-25T22:24:02.092Z,62.90
2018-02-25T22:26:36.686Z,62.90
2018-02-25T22:29:10.491Z,62.30
2018-02-25T22:31:44.178Z,63.00
2018-02-25T22:34:17.890Z,63.50
2018-02-25T22:36:51.704Z,63.10
2018-02-25T22:39:25.422Z,63.20
2018-02-25T22:42:00.015Z,63.90
2018-02-25T22:44:34.140Z,63.90
2018-02-25T22:47:07.930Z,64.20
2018-02-25T22:49:41.981Z,64.00
2018-02-25T22:52:16.295Z,64.10
2018-02-25T22:54:50.692Z,65.20
2018-02-25T22:57:24.608Z,64.90
2018-02-25T22:59:58.390Z,64.80
2018-02-25T23:02:32.360Z,64.60
2018-02-25T23:05:07.311Z,64.80
2018-02-25T23:07:41.478Z,64.70
2018-02-25T23:10:15.166Z,63.70
2018-02-25T23:12:49.097Z,63.80
2018-02-25T23:15:25.555Z,63.80
2018-02-25T23:17:59.816Z,63.10
2018-02-25T23:20:33.638Z,63.10
2018-02-25T23:23:07.334Z,62.80
2018-02-25T23:25:41.833Z,62.70
2018-02-25T23:28:16.636Z,63.20
2018-02-25T23:30:50.713Z,62.60
2018-02-25T23:33:25.140Z,63.20
2018-02-25T23:35:59.027Z,62.70
2018-02-25T23:38:33.546Z,63.80
2018-02-25T23:41:08.521Z,62.20
2018-02-25T23:43:42.945Z,63.00
2018-02-25T23:46:17.845Z,62.50
2018-02-25T23:48:51.914Z,62.90
2018-02-25T23:51:25.813Z,62.70
2018-02-25T23:53:59.699Z,62.60
2018-02-25T23:56:33.520Z,62.30
2018-02-25T23:59:12.715Z,62.10
